Igor I Sikorsky Memorial Airport
KBDR : now visible

Airfield :











YOU CAN JOIN US ON...

 
LOGIN :

Register | Disclaimer

   EN    FR    IT 

 









Legend :    VFR   Marginal VFR   IFR   Intensive IFR   Very Intensive IFR
Visi :
Ceiling :
>= 8 km
>= 3000ft
5 to 8 km
1000 to 3000 ft
1500m to 5 km
500 to 1000 ft
800 to 1500m
200 to 500 ft
< 800m
< 200 ft
Symbols :   Thunderstorms  Fog  Heavy snow  Heavy precipitations  Wind > 20 kt






- Airport Elevation : 9 ft
- IATA code : BDR


KBDR - Igor I Sikorsky Memorial

CURRENT METAR :
  • 072052Z 20015KT 10SM CLR 17/03 A2976 RMK AO2 SLP077 T01720028 56031

EXPIRED METARs :
  • 071952Z 22011KT 10SM CLR 16/03 A2978 RMK AO2 SLP083 T01610033
  • 071852Z 20012KT 10SM FEW085 17/01 A2982 RMK AO2 SLP098 T01670011

TAF KBDR
Valid from the 07 at 20:00 until the 08 at 18:00 UTC


071933Z 0720/0818 20010G15KT P6SM SCT080
FM080000 20008KT P6SM BKN080
FM080400 VRB04KT P6SM BKN080
FM080800 VRB04KT 5SM -RA BR OVC020
FM081300 04006KT P6SM OVC030



MET'MAP, your aeronautical weather chart ! - Copyright ORBIFLY December 2007 - Disclaimer

ORBIFLY MET'MAP TEAM :

Programming & Development : Alexandra Zaïnal
Concept & original design : Baudouin d'Aumeries
Assistance for programming : Marc-Olivier Méhu
Technical & hardware support : Manuel Goepfert

Contact : metmap@orbifly.com




SOURCES & CREDITS :

   NOAA       Earth
Advisory